Time,TemperatureF,DewpointF,PressureIn,WindDirection,WindDirectionDegrees,WindSpeedMPH,WindSpeedGustMPH,Humidity,HourlyPrecipIn,Conditions,Clouds,dailyrainin,SoftwareType,DateUTC
2013-06-05 00:02:00,57.0,45.0,30.02,North,-999,-999.0,-999.0,65,0.00,,,0.00,,2013-06-05 07:02:00,
2013-06-05 00:12:00,57.0,45.0,30.02,North,-999,-999.0,-999.0,65,0.00,,,0.00,,2013-06-05 07:12:00,
2013-06-05 00:22:00,56.0,45.0,30.03,North,-999,-999.0,-999.0,67,0.00,,,0.00,,2013-06-05 07:22:00,
2013-06-05 00:32:00,55.0,45.0,30.02,North,-999,-999.0,-999.0,68,0.00,,,0.00,,2013-06-05 07:32:00,
2013-06-05 00:42:00,55.0,45.0,30.02,North,-999,-999.0,-999.0,68,0.00,,,0.00,,2013-06-05 07:42:00,
2013-06-05 00:52:00,55.0,45.0,30.02,North,-999,-999.0,-999.0,69,0.00,,,0.00,,2013-06-05 07:52:00,
2013-06-05 01:02:00,55.0,45.0,30.02,North,-999,-999.0,-999.0,69,0.00,,,0.00,,2013-06-05 08:02:00,
2013-06-05 01:12:00,55.0,45.0,30.02,North,-999,-999.0,-999.0,69,0.00,,,0.00,,2013-06-05 08:12:00,
2013-06-05 01:22:00,55.0,45.0,30.02,North,-999,-999.0,-999.0,69,0.00,,,0.00,,2013-06-05 08:22:00,
2013-06-05 06:52:00,55.0,45.0,30.02,North,-999,-999.0,-999.0,69,0.00,,,0.00,,2013-06-05 13:52:00,
2013-06-05 07:02:00,51.0,46.0,30.02,North,-999,-999.0,-999.0,82,0.00,,,0.00,,2013-06-05 14:02:00,
2013-06-05 07:12:00,51.0,46.0,30.02,North,-999,-999.0,-999.0,82,0.00,,,0.00,,2013-06-05 14:12:00,
2013-06-05 07:22:00,52.0,47.0,30.02,North,-999,-999.0,-999.0,82,0.00,,,0.00,,2013-06-05 14:22:00,
2013-06-05 07:32:00,52.0,47.0,30.02,North,-999,-999.0,-999.0,82,0.00,,,0.00,,2013-06-05 14:32:00,
2013-06-05 07:42:00,52.0,47.0,30.02,North,-999,-999.0,-999.0,82,0.00,,,0.00,,2013-06-05 14:42:00,
2013-06-05 07:52:00,52.0,47.0,30.02,North,-999,-999.0,-999.0,82,0.00,,,0.00,,2013-06-05 14:52:00,
2013-06-05 08:02:00,55.0,49.0,30.03,North,-999,-999.0,-999.0,80,0.00,,,0.00,,2013-06-05 15:02:00,
2013-06-05 08:12:00,55.0,49.0,30.03,North,-999,-999.0,-999.0,80,0.00,,,0.00,,2013-06-05 15:12:00,
2013-06-05 08:22:00,55.0,49.0,30.03,North,-999,-999.0,-999.0,80,0.00,,,0.00,,2013-06-05 15:22:00,
2013-06-05 08:33:00,57.0,51.0,30.03,North,-999,-999.0,-999.0,79,0.00,,,0.00,,2013-06-05 15:33:00,
2013-06-05 08:42:00,57.0,51.0,30.03,North,-999,-999.0,-999.0,79,0.00,,,0.00,,2013-06-05 15:42:00,
2013-06-05 08:53:00,57.0,51.0,30.03,North,-999,-999.0,-999.0,79,0.00,,,0.00,,2013-06-05 15:53:00,
2013-06-05 09:03:00,60.0,51.0,30.03,North,-999,-999.0,-999.0,73,0.00,,,0.00,,2013-06-05 16:03:00,
2013-06-05 09:11:00,63.0,53.0,30.03,North,-999,-999.0,-999.0,69,0.00,,,0.00,,2013-06-05 16:11:00,
2013-06-05 09:12:00,60.0,51.0,30.03,North,-999,-999.0,-999.0,73,0.00,,,0.00,,2013-06-05 16:12:00,
2013-06-05 09:22:00,60.0,51.0,30.03,North,-999,-999.0,-999.0,73,0.00,,,0.00,,2013-06-05 16:22:00,
2013-06-05 09:32:00,63.0,53.0,30.03,North,-999,-999.0,-999.0,69,0.00,,,0.00,,2013-06-05 16:32:00,
2013-06-05 09:42:00,63.0,53.0,30.03,North,-999,-999.0,-999.0,69,0.00,,,0.00,,2013-06-05 16:42:00,
2013-06-05 09:54:00,63.0,53.0,30.03,North,-999,-999.0,-999.0,69,0.00,,,0.00,,2013-06-05 16:54:00,
2013-06-05 10:02:00,63.0,53.0,30.03,North,-999,-999.0,-999.0,69,0.00,,,0.00,,2013-06-05 17:02:00,
2013-06-05 13:32:00,77.0,52.0,29.99,North,-999,-999.0,-999.0,42,0.00,,,0.00,,2013-06-05 20:32:00,
2013-06-05 13:41:00,76.0,51.0,29.99,North,-999,-999.0,-999.0,42,0.00,,,0.00,,2013-06-05 20:41:00,
2013-06-05 13:42:00,77.0,52.0,29.99,North,-999,-999.0,-999.0,42,0.00,,,0.00,,2013-06-05 20:42:00,
2013-06-05 13:52:00,77.0,52.0,29.99,North,-999,-999.0,-999.0,42,0.00,,,0.00,,2013-06-05 20:52:00,
2013-06-05 14:02:00,76.0,51.0,29.99,North,-999,-999.0,-999.0,42,0.00,,,0.00,,2013-06-05 21:02:00,
2013-06-05 14:11:00,76.0,51.0,29.99,North,-999,-999.0,-999.0,42,0.00,,,0.00,,2013-06-05 21:11:00,
2013-06-05 14:22:00,76.0,51.0,29.99,North,-999,-999.0,-999.0,42,0.00,,,0.00,,2013-06-05 21:22:00,
2013-06-05 14:33:00,76.0,51.0,29.99,North,-999,-999.0,-999.0,42,0.00,,,0.00,,2013-06-05 21:33:00,
2013-06-05 15:33:00,78.0,51.0,29.96,North,-999,-999.0,-999.0,39,0.00,,,0.00,,2013-06-05 22:33:00,
2013-06-05 15:43:00,78.0,52.0,29.95,North,-999,-999.0,-999.0,40,0.00,,,0.00,,2013-06-05 22:43:00,
2013-06-05 15:52:00,78.0,52.0,29.95,North,-999,-999.0,-999.0,40,0.00,,,0.00,,2013-06-05 22:52:00,
2013-06-05 16:02:00,78.0,52.0,29.95,North,-999,-999.0,-999.0,40,0.00,,,0.00,,2013-06-05 23:02:00,
2013-06-05 16:12:00,78.0,52.0,29.95,North,-999,-999.0,-999.0,40,0.00,,,0.00,,2013-06-05 23:12:00,
2013-06-05 16:21:00,78.0,52.0,29.95,North,-999,-999.0,-999.0,40,0.00,,,0.00,,2013-06-05 23:21:00,
2013-06-05 16:32:00,78.0,52.0,29.95,North,-999,-999.0,-999.0,40,0.00,,,0.00,,2013-06-05 23:32:00,
2013-06-05 16:42:00,78.0,52.0,29.95,North,-999,-999.0,-999.0,40,0.00,,,0.00,,2013-06-05 23:42:00,
2013-06-05 16:53:00,78.0,52.0,29.95,North,-999,-999.0,-999.0,40,0.00,,,0.00,,2013-06-05 23:53:00,
2013-06-05 17:02:00,78.0,52.0,29.94,North,-999,-999.0,-999.0,41,0.00,,,0.00,,2013-06-06 00:02:00,
2013-06-05 17:10:00,78.0,52.0,29.94,North,-999,-999.0,-999.0,41,0.00,,,0.00,,2013-06-06 00:10:00,
2013-06-05 17:12:00,78.0,52.0,29.94,North,-999,-999.0,-999.0,41,0.00,,,0.00,,2013-06-06 00:12:00,
2013-06-05 17:22:00,78.0,52.0,29.94,North,-999,-999.0,-999.0,41,0.00,,,0.00,,2013-06-06 00:22:00,
2013-06-05 17:32:00,78.0,52.0,29.94,North,-999,-999.0,-999.0,41,0.00,,,0.00,,2013-06-06 00:32:00,
2013-06-05 17:42:00,78.0,52.0,29.94,North,-999,-999.0,-999.0,41,0.00,,,0.00,,2013-06-06 00:42:00,
2013-06-05 17:52:00,78.0,52.0,29.94,North,-999,-999.0,-999.0,41,0.00,,,0.00,,2013-06-06 00:52:00,
2013-06-05 18:02:00,78.0,52.0,29.94,North,-999,-999.0,-999.0,41,0.00,,,0.00,,2013-06-06 01:02:00,
2013-06-05 22:51:00,65.0,49.0,29.92,North,-999,-999.0,-999.0,56,0.00,,,0.00,,2013-06-06 05:51:00,
2013-06-05 22:52:00,78.0,52.0,29.93,North,-999,-999.0,-999.0,40,0.00,,,0.00,,2013-06-06 05:52:00,
2013-06-05 23:02:00,65.0,49.0,29.92,North,-999,-999.0,-999.0,56,0.00,,,0.00,,2013-06-06 06:02:00,
2013-06-05 23:12:00,65.0,49.0,29.92,North,-999,-999.0,-999.0,56,0.00,,,0.00,,2013-06-06 06:12:00,
2013-06-05 23:22:00,65.0,49.0,29.92,North,-999,-999.0,-999.0,56,0.00,,,0.00,,2013-06-06 06:22:00,
2013-06-05 23:32:00,65.0,49.0,29.92,North,-999,-999.0,-999.0,56,0.00,,,0.00,,2013-06-06 06:32:00,
2013-06-05 23:42:00,65.0,49.0,29.92,North,-999,-999.0,-999.0,56,0.00,,,0.00,,2013-06-06 06:42:00,